Main page
METAR-TAF:

METAR-TAF

Airports :

Vlissingen, Netherlands

latitude: 51-27N, longitude: 3-36E, elevation: 10 m

Current weather observation

The report was made 22 minutes ago, at 07:25 UTC
Wind 10 kt from the South/Southwest
Temperature 16°C
Humidity 94%
Pressure 1003 hPa
Visibility 10 km or more

METAR: EHFS 180725Z AUTO 20010KT 9999 FEW005/// BKN006/// BKN007/// 16/15 Q1003 W///H///

Time: 09:47 (07:47 UTC)


TAF: missing

Weather observations and forecasts of more than 4000 airports (METAR and TAF reports).

The available stations are represented by yellow and red dots on the map.

Hover mouse over dot to see the name of the station.

Then click to see weather observations and forecasts.

To change the map : click on the green buttons with a black cross to zoom in, on the green button with a dash to zoom out, or on the green arrows for adjacent maps.


METAR-TAF: